Time;durP1;ratioP1;P1;durP2;ratioP2;P2;SDS_P1;SDS_P2;PMS_P1;PMS_P2;Temp;Humidity;BMP_temperature;BMP_pressure;BME280_temperature;BME280_humidity;BME280_pressure;Samples;Min_cycle;Max_cycle;Signal;HPM_P1;HPM_P2
2023/03/17 00:00:44;;;;;;;;;12.50;12.00;;;;;14.96;48.05;100106.19;2096185;28;46645;-69
2023/03/17 00:01:50;;;;;;;;;9.60;9.20;;;;;14.96;47.71;100107.97;2105953;27;46405;-69
2023/03/17 00:02:50;;;;;;;;;10.00;10.00;;;;;14.96;47.54;100110.66;2106818;27;46550;-69
2023/03/17 00:03:51;;;;;;;;;12.00;12.00;;;;;14.96;47.47;100110.66;2106226;27;47012;-68
2023/03/17 00:04:52;;;;;;;;;12.75;12.75;;;;;14.93;47.72;100109.00;2104716;27;45937;-70
2023/03/17 00:05:53;;;;;;;;;10.25;10.00;;;;;14.94;47.94;100112.53;2105353;28;45675;-71
2023/03/17 00:06:54;;;;;;;;;12.40;11.40;;;;;14.91;48.04;100113.56;2107093;27;47735;-70
2023/03/17 00:08:01;;;;;;;;;12.00;10.25;;;;;14.90;47.74;100110.97;2107207;27;45826;-70
2023/03/17 00:09:01;;;;;;;;;12.00;11.40;;;;;14.89;48.01;100110.09;2105584;28;46261;-70
2023/03/17 00:10:01;;;;;;;;;10.00;9.67;;;;;14.88;47.74;100115.53;2107715;27;46179;-70
2023/03/17 00:11:02;;;;;;;;;13.00;11.75;;;;;14.87;47.59;100117.34;2107614;27;45707;-69
2023/03/17 00:12:09;;;;;;;;;12.50;11.50;;;;;14.87;47.66;100121.81;2113766;27;46803;-69
2023/03/17 00:13:11;;;;;;;;;10.80;10.40;;;;;14.88;48.12;100120.88;2108890;27;45076;-69
2023/03/17 00:14:12;;;;;;;;;12.60;12.60;;;;;14.87;48.13;100121.81;2097877;28;45643;-69
2023/03/17 00:15:13;;;;;;;;;13.75;13.75;;;;;14.86;48.03;100117.38;2099795;28;46084;-71
2023/03/17 00:16:29;;;;;;;;;11.20;10.00;;;;;14.84;48.29;100114.78;2100543;28;45518;-69
2023/03/17 00:17:30;;;;;;;;;10.60;10.60;;;;;14.83;48.20;100121.06;2110929;27;47750;-71
2023/03/17 00:18:32;;;;;;;;;10.50;10.50;;;;;14.82;48.31;100122.03;2099405;27;46551;-70
2023/03/17 00:19:34;;;;;;;;;10.20;10.20;;;;;14.82;48.25;100123.81;2109763;27;46724;-69
2023/03/17 00:20:34;;;;;;;;;10.40;9.40;;;;;14.81;48.14;100130.09;2110232;27;46252;-69
2023/03/17 00:21:35;;;;;;;;;11.25;9.75;;;;;14.79;48.27;100124.84;2101824;27;45764;-68
2023/03/17 00:22:35;;;;;;;;;11.25;9.75;;;;;14.81;48.25;100130.09;2093306;28;45075;-69
2023/03/17 00:23:35;;;;;;;;;12.00;10.50;;;;;14.80;47.99;100125.72;2104544;28;46897;-69
2023/03/17 00:24:36;;;;;;;;;9.25;9.25;;;;;14.79;48.40;100127.50;2104918;28;45801;-69
2023/03/17 00:25:41;;;;;;;;;10.50;10.50;;;;;14.79;48.25;100127.50;2106277;27;46081;-70
2023/03/17 00:26:42;;;;;;;;;13.40;11.80;;;;;14.78;48.33;100130.25;2112558;27;46795;-71
2023/03/17 00:27:42;;;;;;;;;8.25;8.00;;;;;14.77;48.21;100124.06;2103469;28;46577;-70
2023/03/17 00:28:43;;;;;;;;;11.00;10.75;;;;;14.77;48.33;100132.06;2103840;27;46599;-71
2023/03/17 00:29:43;;;;;;;;;12.25;11.25;;;;;14.77;48.36;100126.72;2108971;27;46852;-70
2023/03/17 00:30:44;;;;;;;;;10.50;10.50;;;;;14.78;48.26;100127.59;2114068;27;44974;-69
2023/03/17 00:31:45;;;;;;;;;13.75;12.75;;;;;14.78;48.28;100130.25;2102095;28;45864;-69
2023/03/17 00:32:47;;;;;;;;;9.25;9.25;;;;;14.77;48.34;100121.38;2099573;28;46833;-69
2023/03/17 00:33:51;;;;;;;;;7.80;7.60;;;;;14.78;48.36;100128.47;2112300;27;46441;-69
2023/03/17 00:34:51;;;;;;;;;9.80;9.80;;;;;14.77;47.86;100128.53;2109668;27;46858;-68
2023/03/17 00:35:51;;;;;;;;;12.00;11.00;;;;;14.76;48.40;100119.66;2110417;27;46327;-69
2023/03/17 00:36:52;;;;;;;;;11.50;7.75;;;;;14.75;48.29;100117.06;2114016;27;46276;-69
2023/03/17 00:37:54;;;;;;;;;10.25;10.25;;;;;14.72;48.32;100118.91;2113771;27;45551;-70
2023/03/17 00:38:55;;;;;;;;;10.20;10.20;;;;;14.71;48.14;100119.00;2098043;27;46786;-71
2023/03/17 00:39:55;;;;;;;;;9.67;9.67;;;;;14.71;48.17;100127.00;2106555;27;46544;-69
2023/03/17 00:40:56;;;;;;;;;8.33;8.33;;;;;14.70;48.30;100127.94;2106126;28;45943;-69
2023/03/17 00:41:56;;;;;;;;;12.25;12.25;;;;;14.70;48.07;100130.63;2111837;27;46503;-69
2023/03/17 00:43:01;;;;;;;;;9.00;9.00;;;;;14.70;48.62;100130.63;2108805;27;45150;-70
2023/03/17 00:44:02;;;;;;;;;12.00;10.80;;;;;14.69;48.30;100126.22;2111054;27;46557;-70
2023/03/17 00:45:02;;;;;;;;;10.50;10.50;;;;;14.70;48.39;100127.94;2109979;27;45677;-70
2023/03/17 00:46:26;;;;;;;;;14.75;13.75;;;;;14.69;48.38;100124.41;2106402;27;46664;-70
2023/03/17 00:47:27;;;;;;;;;11.00;11.00;;;;;14.69;48.40;100128.88;2111520;27;46927;-70
2023/03/17 00:48:28;;;;;;;;;11.00;11.00;;;;;14.68;48.44;100128.03;2104826;27;46228;-70
2023/03/17 00:49:29;;;;;;;;;9.40;9.00;;;;;14.69;48.32;100128.88;2107013;27;47127;-70
2023/03/17 00:50:30;;;;;;;;;10.33;10.33;;;;;14.68;48.68;100136.03;2109089;27;46583;-70
2023/03/17 00:51:31;;;;;;;;;10.00;9.25;;;;;14.68;48.13;100127.16;2106047;27;45518;-70
2023/03/17 00:52:32;;;;;;;;;8.33;8.33;;;;;14.67;48.26;100128.97;2105044;28;45143;-71
2023/03/17 00:53:33;;;;;;;;;11.75;11.50;;;;;14.69;47.86;100132.44;2105384;27;46149;-70
2023/03/17 00:54:34;;;;;;;;;9.67;9.67;;;;;14.70;48.34;100125.28;2113316;27;45879;-69
2023/03/17 00:55:34;;;;;;;;;8.60;8.60;;;;;14.71;48.01;100132.34;2108635;27;45547;-70
2023/03/17 00:56:36;;;;;;;;;10.33;8.33;;;;;14.71;48.07;100127.88;2105172;28;46413;-69
2023/03/17 00:57:38;;;;;;;;;9.80;9.80;;;;;14.72;48.20;100126.06;2112076;27;46726;-70
2023/03/17 00:58:39;;;;;;;;;9.25;9.25;;;;;14.72;48.05;100126.94;2111618;27;45848;-71
2023/03/17 00:59:41;;;;;;;;;10.00;9.25;;;;;14.71;47.97;100130.53;2105270;28;45901;-70
2023/03/17 01:00:41;;;;;;;;;10.40;9.00;;;;;14.73;48.07;100122.44;2104900;27;46624;-70
2023/03/17 01:01:42;;;;;;;;;9.33;9.00;;;;;14.74;47.97;100124.22;2113062;27;46024;-71
2023/03/17 01:02:44;;;;;;;;;10.50;9.50;;;;;14.75;48.18;100123.28;2108362;27;45465;-70
2023/03/17 01:03:44;;;;;;;;;9.20;9.20;;;;;14.76;48.19;100132.16;2109697;27;45661;-69
2023/03/17 01:04:45;;;;;;;;;8.50;8.50;;;;;14.76;47.89;100124.13;2111178;27;45569;-70
2023/03/17 01:05:47;;;;;;;;;7.00;7.00;;;;;14.77;48.11;100117.84;2106369;27;46332;-69
2023/03/17 01:06:49;;;;;;;;;11.40;9.20;;;;;14.77;48.19;100112.50;2106070;27;45599;-70
2023/03/17 01:07:53;;;;;;;;;8.60;8.00;;;;;14.76;48.04;100111.66;2109279;27;45913;-71
2023/03/17 01:08:54;;;;;;;;;8.40;6.20;;;;;14.76;48.22;100110.78;2098435;28;46825;-70
2023/03/17 01:09:55;;;;;;;;;9.60;8.20;;;;;14.76;48.02;100118.78;2103549;28;47128;-69
2023/03/17 01:10:56;;;;;;;;;9.25;9.00;;;;;14.76;48.01;100119.66;2108492;27;46255;-70
2023/03/17 01:11:56;;;;;;;;;12.00;10.60;;;;;14.78;48.36;100122.25;2109464;27;46484;-70
2023/03/17 01:12:57;;;;;;;;;9.00;8.75;;;;;14.78;48.21;100125.78;2104987;27;45178;-70
2023/03/17 01:13:58;;;;;;;;;7.50;7.25;;;;;14.78;48.24;100119.59;2105512;27;46878;-70
2023/03/17 01:14:58;;;;;;;;;9.00;9.00;;;;;14.78;47.85;100125.78;2110733;27;46272;-69
2023/03/17 01:15:59;;;;;;;;;11.50;10.00;;;;;14.78;47.83;100124.94;2098167;28;46923;-69
2023/03/17 01:17:01;;;;;;;;;10.00;10.00;;;;;14.77;48.00;100126.72;2101551;28;46367;-70
2023/03/17 01:18:01;;;;;;;;;8.50;8.50;;;;;14.77;47.80;100126.72;2105142;28;46130;-69
2023/03/17 01:19:03;;;;;;;;;8.67;8.33;;;;;14.78;47.99;100123.13;2105198;28;46303;-69
2023/03/17 01:20:06;;;;;;;;;10.80;9.20;;;;;14.78;47.97;100125.78;2102451;28;45992;-70
2023/03/17 01:21:07;;;;;;;;;8.00;8.00;;;;;14.78;47.81;100131.13;2096732;28;47058;-69
2023/03/17 01:22:08;;;;;;;;;8.00;8.00;;;;;14.78;48.06;100133.81;2104016;28;46530;-69
2023/03/17 01:23:11;;;;;;;;;9.25;9.25;;;;;14.78;47.83;100131.13;2105268;27;46770;-69
2023/03/17 01:24:11;;;;;;;;;9.25;9.25;;;;;14.79;47.81;100135.53;2104573;28;45697;-69
2023/03/17 01:25:12;;;;;;;;;4.67;4.67;;;;;14.80;47.89;100133.72;2105357;28;46016;-69
2023/03/17 01:26:13;;;;;;;;;10.75;9.75;;;;;14.80;47.66;100133.72;2104523;28;46994;-70
2023/03/17 01:27:13;;;;;;;;;10.50;9.50;;;;;14.79;48.22;100132.84;2096429;28;46652;-70
2023/03/17 01:28:16;;;;;;;;;7.33;7.33;;;;;14.79;47.71;100124.84;2099006;28;47723;-70
2023/03/17 01:29:17;;;;;;;;;9.00;8.00;;;;;14.80;47.66;100131.06;2100667;28;46785;-70
2023/03/17 01:30:37;;;;;;;;;10.33;9.33;;;;;14.80;48.09;100134.59;2103975;28;45612;-69
2023/03/17 01:31:38;;;;;;;;;7.25;7.25;;;;;14.80;47.49;100117.69;2105109;28;46646;-70
2023/03/17 01:32:38;;;;;;;;;10.00;10.00;;;;;14.79;47.92;100122.19;2088372;28;46700;-70
2023/03/17 01:33:39;;;;;;;;;10.50;9.50;;;;;14.78;48.06;100123.13;2087503;28;46848;-70
2023/03/17 01:34:39;;;;;;;;;11.00;9.25;;;;;14.79;47.99;100124.84;2104588;28;46277;-69
2023/03/17 01:35:42;;;;;;;;;8.67;8.67;;;;;14.78;47.68;100123.13;2102170;28;46977;-69
2023/03/17 01:36:43;;;;;;;;;7.50;7.50;;;;;14.79;48.01;100121.31;2102784;28;46955;-70
2023/03/17 01:37:44;;;;;;;;;8.67;8.33;;;;;14.78;47.96;100119.59;2096298;28;45987;-70
2023/03/17 01:38:46;;;;;;;;;11.00;9.75;;;;;14.78;48.01;100111.56;2096196;28;45675;-70
2023/03/17 01:39:47;;;;;;;;;10.00;9.75;;;;;14.78;47.84;100116.91;2102131;27;46815;-70
2023/03/17 01:40:50;;;;;;;;;8.00;8.00;;;;;14.77;48.19;100108.03;2105250;28;45328;-70
2023/03/17 01:41:55;;;;;;;;;10.25;9.50;;;;;14.77;47.74;100124.06;2096615;28;46166;-70
2023/03/17 01:43:28;;;;;;;;;12.50;12.00;;;;;14.76;48.05;100122.34;2091611;28;46578;-70
2023/03/17 01:44:28;;;;;;;;;10.75;10.75;;;;;14.73;48.27;100120.66;2078648;28;46439;-70
2023/03/17 01:46:06;;;;;;;;;10.00;7.67;;;;;14.73;47.99;100117.13;2081013;28;46501;-68
2023/03/17 01:47:07;;;;;;;;;10.25;10.25;;;;;14.72;47.84;100112.72;2071208;28;46612;-69
2023/03/17 01:48:08;;;;;;;;;9.25;9.25;;;;;14.72;48.12;100110.03;2077271;28;46361;-70
2023/03/17 01:49:33;;;;;;;;;8.67;8.67;;;;;14.70;48.24;100107.44;2078597;28;46121;-70
2023/03/17 01:50:34;;;;;;;;;8.25;8.25;;;;;14.69;48.23;100112.88;2083078;28;47211;-70
2023/03/17 01:51:37;;;;;;;;;13.00;11.00;;;;;14.69;48.17;100108.38;2079070;28;46167;-71
2023/03/17 01:52:39;;;;;;;;;10.50;10.50;;;;;14.67;47.92;100112.94;2078719;28;45730;-69
2023/03/17 01:53:40;;;;;;;;;10.00;10.00;;;;;14.66;48.28;100113.03;2078704;28;46623;-70
2023/03/17 01:54:49;;;;;;;;;8.00;8.00;;;;;14.65;47.99;100114.84;2078556;28;46992;-69
2023/03/17 01:55:50;;;;;;;;;8.60;8.60;;;;;14.65;48.27;100109.50;2078671;28;46792;-69
2023/03/17 01:56:55;;;;;;;;;11.40;10.00;;;;;14.65;48.16;100116.63;2071050;28;46403;-70
2023/03/17 01:57:56;;;;;;;;;5.25;5.25;;;;;14.63;48.29;100111.38;2071130;28;46759;-69
2023/03/17 01:59:00;;;;;;;;;8.75;8.75;;;;;14.62;48.03;100109.66;2067387;28;45647;-70
2023/03/17 02:00:15;;;;;;;;;8.50;8.50;;;;;14.61;47.95;100113.25;2067848;28;46019;-69
2023/03/17 02:01:16;;;;;;;;;6.75;6.75;;;;;14.61;48.25;100118.59;2079002;28;45772;-68
2023/03/17 02:02:22;;;;;;;;;4.00;4.00;;;;;14.61;48.12;100110.59;2078398;28;46202;-70
2023/03/17 02:03:22;;;;;;;;;8.80;8.40;;;;;14.60;48.33;100113.31;2077809;28;46309;-69
2023/03/17 02:04:25;;;;;;;;;8.00;7.67;;;;;14.61;48.38;100107.00;2071273;28;45938;-71
2023/03/17 02:05:29;;;;;;;;;9.75;9.00;;;;;14.62;48.12;100104.31;2070381;28;45183;-69
2023/03/17 02:06:31;;;;;;;;;6.00;5.00;;;;;14.62;48.40;100108.78;2070600;28;45052;-69
2023/03/17 02:07:32;;;;;;;;;8.50;8.50;;;;;14.61;48.39;100102.56;2076984;28;45652;-70
2023/03/17 02:08:32;;;;;;;;;8.33;8.33;;;;;14.62;48.01;100108.78;2078760;28;45986;-69
2023/03/17 02:09:34;;;;;;;;;9.33;9.33;;;;;14.62;48.33;100106.97;2078538;28;45885;-69
2023/03/17 02:10:34;;;;;;;;;10.25;8.25;;;;;14.62;48.35;100106.97;2070554;28;46027;-70
2023/03/17 02:11:35;;;;;;;;;10.00;10.00;;;;;14.61;48.08;100101.69;2070556;28;46704;-69
2023/03/17 02:12:35;;;;;;;;;8.33;8.33;;;;;14.61;48.20;100105.25;2078411;28;45911;-70
2023/03/17 02:13:37;;;;;;;;;7.00;7.00;;;;;14.61;48.37;100107.91;2079055;28;45020;-69
2023/03/17 02:14:38;;;;;;;;;9.00;8.25;;;;;14.63;48.37;100107.84;2071009;28;45369;-70
2023/03/17 02:15:47;;;;;;;;;8.75;8.75;;;;;14.63;48.37;100107.84;2067636;28;45610;-69
2023/03/17 02:16:48;;;;;;;;;8.60;8.60;;;;;14.62;48.11;100109.66;2071505;28;46713;-71
2023/03/17 02:17:48;;;;;;;;;9.67;9.67;;;;;14.61;48.05;100107.91;2085914;28;46323;-68
2023/03/17 02:18:48;;;;;;;;;11.75;10.50;;;;;14.60;47.99;100110.63;2084212;28;46893;-69
2023/03/17 02:19:49;;;;;;;;;10.00;10.00;;;;;14.62;48.28;100111.44;2078762;28;46533;-69
2023/03/17 02:20:55;;;;;;;;;9.00;9.00;;;;;14.62;48.58;100114.13;2077948;28;46758;-69
2023/03/17 02:21:58;;;;;;;;;10.00;8.40;;;;;14.62;47.97;100116.78;2103192;27;45877;-70
2023/03/17 02:23:00;;;;;;;;;7.75;7.00;;;;;14.61;48.00;100118.59;2104946;28;46220;-69
2023/03/17 02:24:06;;;;;;;;;7.00;7.00;;;;;14.61;48.22;100112.34;2097941;28;46491;-70
2023/03/17 02:25:07;;;;;;;;;4.80;4.80;;;;;14.60;48.36;100113.31;2095054;28;45656;-69
2023/03/17 02:26:07;;;;;;;;;10.40;7.60;;;;;14.60;48.43;100113.31;2104805;28;45451;-69
2023/03/17 02:27:13;;;;;;;;;8.25;8.00;;;;;14.61;48.34;100123.03;2097498;28;46712;-70
2023/03/17 02:28:18;;;;;;;;;8.40;8.40;;;;;14.61;47.89;100117.69;2100885;27;45762;-70
2023/03/17 02:29:22;;;;;;;;;8.80;8.80;;;;;14.60;48.50;100113.31;2104782;28;45994;-68
2023/03/17 02:30:23;;;;;;;;;10.40;8.40;;;;;14.58;48.07;100110.72;2105347;27;46956;-70
2023/03/17 02:31:25;;;;;;;;;7.80;7.80;;;;;14.58;48.35;100110.72;2106226;27;46525;-70
2023/03/17 02:32:26;;;;;;;;;9.00;9.00;;;;;14.58;48.33;100107.16;2104980;28;45943;-69
2023/03/17 02:33:26;;;;;;;;;12.00;11.00;;;;;14.59;48.10;100106.22;2105239;27;46175;-70
2023/03/17 02:34:28;;;;;;;;;9.75;9.75;;;;;14.58;48.26;100105.38;2104984;28;45616;-69
2023/03/17 02:35:29;;;;;;;;;9.20;9.20;;;;;14.60;48.29;100110.63;2105525;27;46170;-68
2023/03/17 02:36:30;;;;;;;;;9.20;9.20;;;;;14.60;48.02;100099.94;2095196;28;46244;-69
2023/03/17 02:37:30;;;;;;;;;11.25;10.50;;;;;14.60;48.38;100105.28;2095072;28;46689;-69
2023/03/17 02:38:30;;;;;;;;;7.00;7.00;;;;;14.60;48.41;100102.63;2096096;28;45629;-68
2023/03/17 02:39:31;;;;;;;;;10.75;9.00;;;;;14.59;48.07;100099.09;2095717;28;45481;-69
2023/03/17 02:40:32;;;;;;;;;9.50;9.50;;;;;14.59;48.38;100091.06;2095362;28;46474;-69
2023/03/17 02:41:33;;;;;;;;;8.33;8.33;;;;;14.59;48.17;100096.41;2095484;28;47247;-69
2023/03/17 02:42:34;;;;;;;;;7.50;7.50;;;;;14.59;48.27;100096.41;2094898;28;46592;-69
2023/03/17 02:43:35;;;;;;;;;6.60;6.60;;;;;14.60;48.54;100102.63;2087870;28;46069;-69
2023/03/17 02:44:35;;;;;;;;;10.25;9.50;;;;;14.60;48.42;100099.94;2087244;28;45935;-69
2023/03/17 02:45:36;;;;;;;;;7.33;7.33;;;;;14.61;48.22;100104.34;2098743;28;45962;-70
2023/03/17 02:46:36;;;;;;;;;7.75;7.75;;;;;14.62;48.15;100100.78;2096403;28;46802;-68
2023/03/17 02:47:37;;;;;;;;;10.00;10.00;;;;;14.63;48.37;100102.50;2096966;28;45882;-70
2023/03/17 02:48:38;;;;;;;;;9.00;8.25;;;;;14.64;48.03;100101.56;2102586;28;46312;-70
2023/03/17 02:49:40;;;;;;;;;9.80;9.00;;;;;14.64;48.39;100102.41;2101038;28;47032;-68
2023/03/17 02:50:40;;;;;;;;;9.50;9.00;;;;;14.63;48.34;100105.16;2103758;28;46234;-69
2023/03/17 02:51:41;;;;;;;;;11.33;9.67;;;;;14.63;48.44;100099.81;2094570;28;47015;-71
2023/03/17 02:52:41;;;;;;;;;3.75;3.75;;;;;14.63;48.14;100103.34;2094980;28;45505;-70
2023/03/17 02:53:41;;;;;;;;;8.25;8.25;;;;;14.61;48.48;100091.91;2103605;28;48146;-70
2023/03/17 02:54:42;;;;;;;;;10.00;10.00;;;;;14.64;48.20;100102.41;2097234;28;45787;-69
2023/03/17 02:55:42;;;;;;;;;9.50;7.75;;;;;14.63;48.20;100092.69;2095016;28;46427;-69
2023/03/17 02:56:43;;;;;;;;;8.00;8.00;;;;;14.64;48.43;100102.41;2101736;28;46441;-69
2023/03/17 02:57:43;;;;;;;;;10.50;9.00;;;;;14.64;48.68;100091.75;2103335;28;46495;-69
2023/03/17 02:58:44;;;;;;;;;10.50;9.25;;;;;14.65;48.14;100092.59;2103473;28;45908;-69
2023/03/17 02:59:44;;;;;;;;;6.75;6.75;;;;;14.65;48.17;100093.47;2097223;28;45607;-69
2023/03/17 03:00:44;;;;;;;;;9.67;8.67;;;;;14.65;48.61;100087.25;2097168;28;45306;-68
2023/03/17 03:01:47;;;;;;;;;9.25;9.00;;;;;14.66;48.21;100089.00;2103513;28;45448;-69
2023/03/17 03:02:47;;;;;;;;;8.50;7.50;;;;;14.65;48.59;100077.44;2095059;28;46197;-69
2023/03/17 03:03:47;;;;;;;;;7.00;7.00;;;;;14.66;48.34;100084.50;2095033;28;46087;-68
2023/03/17 03:04:49;;;;;;;;;7.67;7.67;;;;;14.66;48.42;100079.16;2102861;28;45776;-68
2023/03/17 03:05:49;;;;;;;;;10.60;7.20;;;;;14.68;48.30;100079.09;2103366;28;46162;-68
2023/03/17 03:06:50;;;;;;;;;9.00;9.00;;;;;14.68;48.15;100076.41;2103984;28;45746;-68
2023/03/17 03:07:51;;;;;;;;;9.25;9.25;;;;;14.67;48.41;100072.88;2104665;27;46198;-69
2023/03/17 03:08:52;;;;;;;;;11.00;9.00;;;;;14.66;48.62;100068.50;2106809;27;45180;-67
2023/03/17 03:09:52;;;;;;;;;10.25;10.25;;;;;14.68;48.49;100071.94;2096624;28;44956;-68
2023/03/17 03:10:53;;;;;;;;;7.50;7.50;;;;;14.70;48.43;100069.19;2096150;28;45316;-69
2023/03/17 03:11:54;;;;;;;;;9.00;7.80;;;;;14.69;48.42;100065.66;2102268;28;46859;-70
2023/03/17 03:12:55;;;;;;;;;8.00;8.00;;;;;14.70;48.37;100070.06;2104072;28;46808;-69
2023/03/17 03:13:55;;;;;;;;;8.67;8.67;;;;;14.71;48.33;100065.59;2104616;27;46227;-70
2023/03/17 03:14:56;;;;;;;;;10.67;8.00;;;;;14.71;48.42;100069.13;2104621;28;45960;-69
2023/03/17 03:15:56;;;;;;;;;8.00;7.00;;;;;14.72;48.48;100069.97;2100925;28;46330;-69
2023/03/17 03:16:57;;;;;;;;;9.00;9.00;;;;;14.72;48.17;100064.63;2107078;27;45762;-71
2023/03/17 03:17:57;;;;;;;;;8.00;8.00;;;;;14.72;48.23;100068.16;2104397;28;46803;-70
2023/03/17 03:18:58;;;;;;;;;7.33;7.33;;;;;14.73;48.17;100061.88;2109296;27;46833;-69
2023/03/17 03:19:58;;;;;;;;;9.00;9.00;;;;;14.72;48.19;100061.97;2112942;27;46482;-69
2023/03/17 03:20:59;;;;;;;;;9.33;9.33;;;;;14.72;48.21;100057.50;2096505;28;46569;-69
2023/03/17 03:22:00;;;;;;;;;7.20;7.20;;;;;14.72;48.38;100054.81;2087159;28;46200;-70
2023/03/17 03:23:00;;;;;;;;;10.00;8.00;;;;;14.72;48.46;100052.16;2095480;28;46568;-69
2023/03/17 03:24:01;;;;;;;;;6.25;6.25;;;;;14.70;48.16;100059.38;2099965;27;45199;-68
2023/03/17 03:25:01;;;;;;;;;10.00;9.33;;;;;14.70;48.23;100054.03;2097522;27;45894;-69
2023/03/17 03:26:02;;;;;;;;;12.33;9.33;;;;;14.69;48.18;100071.00;2104355;28;45923;-69
2023/03/17 03:27:03;;;;;;;;;6.67;6.67;;;;;14.70;48.18;100069.19;2096155;28;45838;-69
2023/03/17 03:28:06;;;;;;;;;10.33;9.67;;;;;14.69;48.59;100068.34;2099041;28;46687;-69
2023/03/17 03:29:07;;;;;;;;;8.75;8.50;;;;;14.68;48.03;100063.06;2103938;28;46948;-68
2023/03/17 03:30:09;;;;;;;;;8.75;8.75;;;;;14.67;48.33;100058.66;2107747;27;45625;-69
2023/03/17 03:31:10;;;;;;;;;10.50;9.50;;;;;14.67;48.11;100066.69;2112645;27;45581;-70
2023/03/17 03:32:10;;;;;;;;;10.33;9.00;;;;;14.64;48.10;100065.03;2097074;28;46421;-70
2023/03/17 03:33:13;;;;;;;;;6.33;6.33;;;;;14.63;48.28;100065.09;2095772;28;45885;-70
2023/03/17 03:34:15;;;;;;;;;6.50;6.50;;;;;14.63;48.14;100065.97;2095383;28;46816;-69
2023/03/17 03:35:15;;;;;;;;;9.50;9.00;;;;;14.62;48.40;100064.25;2095847;28;46353;-69
2023/03/17 03:36:16;;;;;;;;;8.67;7.33;;;;;14.60;48.21;100059.88;2104719;27;46480;-69
2023/03/17 03:37:16;;;;;;;;;9.33;9.00;;;;;14.61;48.23;100058.94;2103229;28;46301;-68
2023/03/17 03:38:16;;;;;;;;;10.67;9.00;;;;;14.59;48.29;100060.84;2099919;28;46410;-69
2023/03/17 03:39:17;;;;;;;;;9.25;9.25;;;;;14.59;48.11;100055.50;2109242;27;46771;-69
2023/03/17 03:40:17;;;;;;;;;6.50;6.25;;;;;14.58;48.34;100056.44;2105756;27;45886;-69
2023/03/17 03:41:17;;;;;;;;;9.67;9.67;;;;;14.57;48.41;100057.38;2104401;27;46343;-68
2023/03/17 03:42:18;;;;;;;;;9.00;9.00;;;;;14.57;48.48;100066.25;2104291;28;46271;-69
2023/03/17 03:43:19;;;;;;;;;10.00;9.33;;;;;14.56;48.65;100061.84;2104351;27;46919;-69
2023/03/17 03:44:19;;;;;;;;;8.00;8.00;;;;;14.57;48.64;100060.91;2104595;27;46793;-68
2023/03/17 03:45:20;;;;;;;;;7.67;7.67;;;;;14.58;48.62;100065.31;2104295;27;45783;-69
2023/03/17 03:46:20;;;;;;;;;8.00;8.00;;;;;14.58;48.59;100067.97;2108139;27;47010;-68
2023/03/17 03:47:20;;;;;;;;;11.67;8.67;;;;;14.58;48.54;100067.13;2105223;28;46633;-70
2023/03/17 03:48:21;;;;;;;;;8.00;8.00;;;;;14.58;48.57;100067.97;2106404;27;45646;-69
2023/03/17 03:49:22;;;;;;;;;7.33;7.33;;;;;14.58;48.25;100080.47;2106119;27;46101;-71
2023/03/17 03:50:22;;;;;;;;;8.67;7.33;;;;;14.57;48.83;100076.06;2108681;27;46091;-69
2023/03/17 03:51:22;;;;;;;;;8.33;8.33;;;;;14.56;48.59;100077.00;2108266;27;46123;-69
2023/03/17 03:52:23;;;;;;;;;9.00;9.00;;;;;14.54;48.35;100082.44;2096855;28;46408;-69
2023/03/17 03:53:23;;;;;;;;;8.67;8.67;;;;;14.54;48.36;100084.25;2096537;28;45433;-69
2023/03/17 03:54:24;;;;;;;;;9.33;9.33;;;;;14.54;48.43;100085.09;2097125;28;45767;-70
2023/03/17 03:55:24;;;;;;;;;9.67;9.33;;;;;14.54;48.58;100082.44;2096889;28;47199;-69
2023/03/17 03:56:24;;;;;;;;;8.00;8.00;;;;;14.53;48.38;100086.03;2102735;28;46572;-69
2023/03/17 03:57:25;;;;;;;;;7.33;7.33;;;;;14.53;48.58;100077.16;2095871;28;46779;-69
2023/03/17 03:58:25;;;;;;;;;9.33;7.33;;;;;14.52;48.52;100084.31;2095928;28;45422;-70
2023/03/17 03:59:26;;;;;;;;;8.00;7.33;;;;;14.52;48.53;100080.78;2102151;27;46303;-69
2023/03/17 04:00:26;;;;;;;;;8.00;7.00;;;;;14.52;48.72;100081.66;2105814;27;45618;-69
2023/03/17 04:01:27;;;;;;;;;8.67;7.67;;;;;14.52;48.49;100091.47;2106042;28;46834;-70
2023/03/17 04:02:28;;;;;;;;;6.67;5.67;;;;;14.51;48.64;100087.06;2102687;27;46634;-69
2023/03/17 04:03:28;;;;;;;;;6.00;6.00;;;;;14.49;48.73;100089.81;2096729;28;47047;-70
2023/03/17 04:04:29;;;;;;;;;7.33;7.33;;;;;14.50;48.82;100085.34;2111546;27;46693;-69
2023/03/17 04:05:29;;;;;;;;;8.25;8.25;;;;;14.48;48.63;100088.03;2104791;28;46576;-69
2023/03/17 04:06:30;;;;;;;;;8.00;7.00;;;;;14.49;48.64;100091.63;2104547;28;46298;-70
2023/03/17 04:07:30;;;;;;;;;7.33;7.33;;;;;14.47;48.82;100090.78;2100006;28;46459;-70
2023/03/17 04:08:31;;;;;;;;;7.00;7.00;;;;;14.46;48.53;100086.41;2088078;28;46440;-69
2023/03/17 04:09:31;;;;;;;;;7.20;7.20;;;;;14.45;48.59;100087.34;2097067;28;45635;-71
2023/03/17 04:10:32;;;;;;;;;10.00;10.00;;;;;14.43;48.83;100087.38;2105458;27;46512;-69
2023/03/17 04:11:33;;;;;;;;;8.80;8.60;;;;;14.43;48.83;100082.91;2105886;28;46440;-69
2023/03/17 04:12:33;;;;;;;;;6.67;6.67;;;;;14.45;48.74;100087.34;2113122;27;46044;-70
2023/03/17 04:13:34;;;;;;;;;9.25;7.75;;;;;14.43;48.69;100090.06;2107781;27;46234;-70
2023/03/17 04:14:35;;;;;;;;;6.33;6.33;;;;;14.42;48.76;100082.97;2105344;28;46207;-70
2023/03/17 04:15:36;;;;;;;;;5.80;5.80;;;;;14.43;48.50;100076.69;2103296;27;46780;-69
2023/03/17 04:16:36;;;;;;;;;6.60;6.40;;;;;14.42;48.75;100083.84;2096238;28;46580;-69
2023/03/17 04:17:37;;;;;;;;;7.00;7.00;;;;;14.43;49.09;100087.38;2098640;28;46749;-69
2023/03/17 04:18:37;;;;;;;;;8.00;6.67;;;;;14.42;49.17;100085.66;2098334;28;46608;-70
2023/03/17 04:19:38;;;;;;;;;6.00;6.00;;;;;14.41;49.34;100087.47;2088498;28;45770;-69
2023/03/17 04:20:38;;;;;;;;;7.75;7.75;;;;;14.40;49.12;100083.06;2097883;28;46689;-70
2023/03/17 04:21:39;;;;;;;;;7.67;6.67;;;;;14.41;49.25;100083.94;2106902;27;46019;-70
2023/03/17 04:22:41;;;;;;;;;7.25;7.00;;;;;14.39;49.38;100089.34;2106321;27;46692;-69
2023/03/17 04:23:41;;;;;;;;;6.50;6.25;;;;;14.40;49.46;100100.88;2103879;27;46618;-70
2023/03/17 04:24:41;;;;;;;;;6.33;6.33;;;;;14.38;49.17;100092.94;2096779;28;46781;-71
2023/03/17 04:25:41;;;;;;;;;6.00;6.00;;;;;14.38;49.33;100090.28;2105071;27;45881;-70
2023/03/17 04:26:42;;;;;;;;;9.00;7.00;;;;;14.36;49.35;100092.16;2106369;27;46449;-70
2023/03/17 04:27:42;;;;;;;;;7.67;7.67;;;;;14.35;49.27;100084.19;2105723;28;46466;-70
2023/03/17 04:28:42;;;;;;;;;11.00;9.00;;;;;14.35;49.29;100093.06;2106289;27;45256;-70
2023/03/17 04:29:43;;;;;;;;;7.33;6.00;;;;;14.36;49.31;100089.50;2105638;27;46720;-70
2023/03/17 04:30:43;;;;;;;;;8.00;8.00;;;;;14.36;49.58;100083.28;2105337;27;47134;-71
2023/03/17 04:31:45;;;;;;;;;10.00;10.00;;;;;14.37;49.51;100082.34;2095102;28;46681;-68
2023/03/17 04:32:45;;;;;;;;;6.50;6.50;;;;;14.37;49.45;100085.00;2095973;28;46077;-70
2023/03/17 04:33:46;;;;;;;;;9.00;7.67;;;;;14.37;49.36;100085.88;2105886;27;47235;-69
2023/03/17 04:34:47;;;;;;;;;7.67;6.67;;;;;14.38;49.52;100084.94;2106878;27;46297;-70
2023/03/17 04:35:47;;;;;;;;;6.33;6.33;;;;;14.39;49.32;100081.34;2110251;27;46367;-69
2023/03/17 04:36:48;;;;;;;;;5.00;5.00;;;;;14.40;49.72;100084.88;2109247;27;45869;-69
2023/03/17 04:37:49;;;;;;;;;7.67;6.67;;;;;14.41;49.70;100081.25;2113893;27;46046;-70
2023/03/17 04:38:50;;;;;;;;;8.50;8.00;;;;;14.42;49.29;100077.66;2113714;27;46331;-69
2023/03/17 04:39:51;;;;;;;;;7.00;7.00;;;;;14.43;49.50;100088.25;2113670;27;46436;-69
2023/03/17 04:40:51;;;;;;;;;8.67;8.33;;;;;14.43;49.38;100082.91;2113644;27;46369;-69
2023/03/17 04:41:51;;;;;;;;;6.67;5.67;;;;;14.45;49.46;100085.53;2104300;28;46400;-69
2023/03/17 04:42:52;;;;;;;;;6.33;6.33;;;;;14.46;49.49;100079.25;2104264;28;46387;-68
2023/03/17 04:43:52;;;;;;;;;8.00;8.00;;;;;14.47;49.17;100075.63;2113889;27;46515;-69
2023/03/17 04:44:52;;;;;;;;;8.67;7.67;;;;;14.47;49.22;100080.97;2113550;27;46179;-70
2023/03/17 04:45:53;;;;;;;;;6.67;6.33;;;;;14.48;49.42;100073.84;2113906;27;45463;-71